sensor_id;sensor_type;location;lat;lon;timestamp;temperature;humidity
57552;DHT22;43379;48.160;14.036;2023-04-25T00:01:46;10.60;99.90
57552;DHT22;43379;48.160;14.036;2023-04-25T00:04:11;10.60;99.90
57552;DHT22;43379;48.160;14.036;2023-04-25T00:06:37;10.70;99.90
57552;DHT22;43379;48.160;14.036;2023-04-25T00:09:06;10.70;99.90
57552;DHT22;43379;48.160;14.036;2023-04-25T00:11:36;10.60;99.90
57552;DHT22;43379;48.160;14.036;2023-04-25T00:14:02;10.70;99.90
57552;DHT22;43379;48.160;14.036;2023-04-25T00:16:29;10.60;99.90
57552;DHT22;43379;48.160;14.036;2023-04-25T00:18:56;10.60;99.90
57552;DHT22;43379;48.160;14.036;2023-04-25T00:21:22;10.60;99.90
57552;DHT22;43379;48.160;14.036;2023-04-25T00:23:49;10.50;99.90
57552;DHT22;43379;48.160;14.036;2023-04-25T00:26:15;10.40;99.90
57552;DHT22;43379;48.160;14.036;2023-04-25T00:28:41;10.50;99.90
57552;DHT22;43379;48.160;14.036;2023-04-25T00:31:06;10.60;99.90
57552;DHT22;43379;48.160;14.036;2023-04-25T00:33:32;10.60;99.90
57552;DHT22;43379;48.160;14.036;2023-04-25T00:35:58;10.60;99.90
57552;DHT22;43379;48.160;14.036;2023-04-25T00:38:23;10.60;99.90
57552;DHT22;43379;48.160;14.036;2023-04-25T00:40:49;10.50;99.90
57552;DHT22;43379;48.160;14.036;2023-04-25T00:43:15;10.40;99.90
57552;DHT22;43379;48.160;14.036;2023-04-25T00:45:41;10.30;99.90
57552;DHT22;43379;48.160;14.036;2023-04-25T00:48:08;10.30;99.90
57552;DHT22;43379;48.160;14.036;2023-04-25T00:50:34;10.30;99.90
57552;DHT22;43379;48.160;14.036;2023-04-25T00:53:00;10.20;99.90
57552;DHT22;43379;48.160;14.036;2023-04-25T00:55:27;10.20;99.90
57552;DHT22;43379;48.160;14.036;2023-04-25T00:57:53;10.30;99.90
57552;DHT22;43379;48.160;14.036;2023-04-25T01:00:19;10.30;99.90
57552;DHT22;43379;48.160;14.036;2023-04-25T01:02:45;10.30;99.90
57552;DHT22;43379;48.160;14.036;2023-04-25T01:05:11;10.20;99.90
57552;DHT22;43379;48.160;14.036;2023-04-25T01:07:37;10.30;99.90
57552;DHT22;43379;48.160;14.036;2023-04-25T01:10:04;10.30;99.90
57552;DHT22;43379;48.160;14.036;2023-04-25T01:12:31;10.20;99.90
57552;DHT22;43379;48.160;14.036;2023-04-25T01:14:57;10.10;99.90
57552;DHT22;43379;48.160;14.036;2023-04-25T01:17:23;10.20;99.90
57552;DHT22;43379;48.160;14.036;2023-04-25T01:19:49;10.30;99.90
57552;DHT22;43379;48.160;14.036;2023-04-25T01:22:16;10.10;99.90
57552;DHT22;43379;48.160;14.036;2023-04-25T01:24:43;10.20;99.90
57552;DHT22;43379;48.160;14.036;2023-04-25T01:27:09;10.20;99.90
57552;DHT22;43379;48.160;14.036;2023-04-25T01:29:35;10.10;99.90
57552;DHT22;43379;48.160;14.036;2023-04-25T01:32:02;10.00;99.90
57552;DHT22;43379;48.160;14.036;2023-04-25T01:34:28;10.10;99.90
57552;DHT22;43379;48.160;14.036;2023-04-25T01:36:54;10.00;99.90
57552;DHT22;43379;48.160;14.036;2023-04-25T01:39:20;10.00;99.90
57552;DHT22;43379;48.160;14.036;2023-04-25T01:41:47;10.10;99.90
57552;DHT22;43379;48.160;14.036;2023-04-25T01:44:13;10.10;99.90
57552;DHT22;43379;48.160;14.036;2023-04-25T01:46:39;10.10;99.90
57552;DHT22;43379;48.160;14.036;2023-04-25T01:49:05;10.20;99.90
57552;DHT22;43379;48.160;14.036;2023-04-25T01:51:31;10.10;99.90
57552;DHT22;43379;48.160;14.036;2023-04-25T01:53:57;10.10;99.90
57552;DHT22;43379;48.160;14.036;2023-04-25T01:56:23;10.20;99.90
57552;DHT22;43379;48.160;14.036;2023-04-25T01:58:49;10.20;99.90
57552;DHT22;43379;48.160;14.036;2023-04-25T02:01:15;10.20;99.90
57552;DHT22;43379;48.160;14.036;2023-04-25T02:03:40;10.20;99.90
57552;DHT22;43379;48.160;14.036;2023-04-25T02:06:06;10.20;99.90
57552;DHT22;43379;48.160;14.036;2023-04-25T02:08:32;10.20;99.90
57552;DHT22;43379;48.160;14.036;2023-04-25T02:10:58;10.10;99.90
57552;DHT22;43379;48.160;14.036;2023-04-25T02:13:23;10.10;99.90
57552;DHT22;43379;48.160;14.036;2023-04-25T02:15:49;10.10;99.90
57552;DHT22;43379;48.160;14.036;2023-04-25T02:18:15;10.10;99.90
57552;DHT22;43379;48.160;14.036;2023-04-25T02:20:44;10.00;99.90
57552;DHT22;43379;48.160;14.036;2023-04-25T02:23:09;10.00;99.90
57552;DHT22;43379;48.160;14.036;2023-04-25T02:25:35;9.90;99.90
57552;DHT22;43379;48.160;14.036;2023-04-25T02:28:01;9.90;99.90
57552;DHT22;43379;48.160;14.036;2023-04-25T02:30:26;9.80;99.90
57552;DHT22;43379;48.160;14.036;2023-04-25T02:32:52;9.90;99.90
57552;DHT22;43379;48.160;14.036;2023-04-25T02:35:18;9.90;99.90
57552;DHT22;43379;48.160;14.036;2023-04-25T02:37:44;9.90;99.90
57552;DHT22;43379;48.160;14.036;2023-04-25T02:40:10;9.90;99.90
57552;DHT22;43379;48.160;14.036;2023-04-25T02:42:36;9.90;99.90
57552;DHT22;43379;48.160;14.036;2023-04-25T02:45:02;9.80;99.90
57552;DHT22;43379;48.160;14.036;2023-04-25T02:47:28;9.80;99.90
57552;DHT22;43379;48.160;14.036;2023-04-25T02:49:53;9.80;99.90
57552;DHT22;43379;48.160;14.036;2023-04-25T02:52:19;9.70;99.90
57552;DHT22;43379;48.160;14.036;2023-04-25T02:54:46;9.80;99.90
57552;DHT22;43379;48.160;14.036;2023-04-25T02:57:12;9.70;99.90
57552;DHT22;43379;48.160;14.036;2023-04-25T02:59:38;9.70;99.90
57552;DHT22;43379;48.160;14.036;2023-04-25T03:02:03;9.70;99.90
57552;DHT22;43379;48.160;14.036;2023-04-25T03:04:29;9.70;99.90
57552;DHT22;43379;48.160;14.036;2023-04-25T03:06:55;9.70;99.90
57552;DHT22;43379;48.160;14.036;2023-04-25T03:09:21;9.60;99.90
57552;DHT22;43379;48.160;14.036;2023-04-25T03:11:46;9.60;99.90
57552;DHT22;43379;48.160;14.036;2023-04-25T03:14:13;9.60;99.90
57552;DHT22;43379;48.160;14.036;2023-04-25T03:16:38;9.60;99.90
57552;DHT22;43379;48.160;14.036;2023-04-25T03:19:04;9.70;99.90
57552;DHT22;43379;48.160;14.036;2023-04-25T03:21:32;9.70;99.90
57552;DHT22;43379;48.160;14.036;2023-04-25T03:23:59;9.70;99.90
57552;DHT22;43379;48.160;14.036;2023-04-25T03:26:24;9.70;99.90
57552;DHT22;43379;48.160;14.036;2023-04-25T03:28:50;9.80;99.90
57552;DHT22;43379;48.160;14.036;2023-04-25T03:31:16;9.70;99.90
57552;DHT22;43379;48.160;14.036;2023-04-25T03:33:41;9.70;99.90
57552;DHT22;43379;48.160;14.036;2023-04-25T03:36:07;9.70;99.90
57552;DHT22;43379;48.160;14.036;2023-04-25T03:38:33;9.60;99.90
57552;DHT22;43379;48.160;14.036;2023-04-25T03:41:00;9.60;99.90
57552;DHT22;43379;48.160;14.036;2023-04-25T03:43:26;9.60;99.90
57552;DHT22;43379;48.160;14.036;2023-04-25T03:45:51;9.60;99.90
57552;DHT22;43379;48.160;14.036;2023-04-25T03:48:17;9.60;99.90
57552;DHT22;43379;48.160;14.036;2023-04-25T03:50:43;9.50;99.90
57552;DHT22;43379;48.160;14.036;2023-04-25T03:53:08;9.50;99.90
57552;DHT22;43379;48.160;14.036;2023-04-25T03:55:34;9.50;99.90
57552;DHT22;43379;48.160;14.036;2023-04-25T03:58:00;9.50;99.90
57552;DHT22;43379;48.160;14.036;2023-04-25T04:00:25;9.50;99.90
57552;DHT22;43379;48.160;14.036;2023-04-25T04:02:51;9.50;99.90
57552;DHT22;43379;48.160;14.036;2023-04-25T04:05:17;9.50;99.90
57552;DHT22;43379;48.160;14.036;2023-04-25T04:07:43;9.50;99.90
57552;DHT22;43379;48.160;14.036;2023-04-25T04:10:11;9.40;99.90
57552;DHT22;43379;48.160;14.036;2023-04-25T04:12:38;9.50;99.90
57552;DHT22;43379;48.160;14.036;2023-04-25T04:15:04;9.50;99.90
57552;DHT22;43379;48.160;14.036;2023-04-25T04:17:31;9.50;99.90
57552;DHT22;43379;48.160;14.036;2023-04-25T04:19:57;9.50;99.90
57552;DHT22;43379;48.160;14.036;2023-04-25T04:22:23;9.60;99.90
57552;DHT22;43379;48.160;14.036;2023-04-25T04:24:48;9.70;99.90
57552;DHT22;43379;48.160;14.036;2023-04-25T04:27:16;9.70;99.90
57552;DHT22;43379;48.160;14.036;2023-04-25T04:29:43;9.70;99.90
57552;DHT22;43379;48.160;14.036;2023-04-25T04:32:08;9.70;99.90
57552;DHT22;43379;48.160;14.036;2023-04-25T04:34:34;9.60;99.90
57552;DHT22;43379;48.160;14.036;2023-04-25T04:37:00;9.70;99.90
57552;DHT22;43379;48.160;14.036;2023-04-25T04:39:26;9.70;99.90
57552;DHT22;43379;48.160;14.036;2023-04-25T04:41:51;9.70;99.90
57552;DHT22;43379;48.160;14.036;2023-04-25T04:44:17;9.80;99.90
57552;DHT22;43379;48.160;14.036;2023-04-25T04:46:43;9.90;99.90
57552;DHT22;43379;48.160;14.036;2023-04-25T04:49:13;9.90;99.90
57552;DHT22;43379;48.160;14.036;2023-04-25T04:51:42;9.90;99.90
57552;DHT22;43379;48.160;14.036;2023-04-25T04:54:10;9.90;99.90
57552;DHT22;43379;48.160;14.036;2023-04-25T04:56:35;9.90;99.90
57552;DHT22;43379;48.160;14.036;2023-04-25T04:59:01;9.90;99.90
57552;DHT22;43379;48.160;14.036;2023-04-25T05:01:28;10.00;99.90
57552;DHT22;43379;48.160;14.036;2023-04-25T05:03:55;10.20;99.90
57552;DHT22;43379;48.160;14.036;2023-04-25T05:06:26;10.20;99.90
57552;DHT22;43379;48.160;14.036;2023-04-25T05:08:51;10.30;99.90
57552;DHT22;43379;48.160;14.036;2023-04-25T05:11:18;10.30;99.90
57552;DHT22;43379;48.160;14.036;2023-04-25T05:13:44;10.40;99.90
57552;DHT22;43379;48.160;14.036;2023-04-25T05:16:11;10.40;99.90
57552;DHT22;43379;48.160;14.036;2023-04-25T05:18:37;10.50;99.90
57552;DHT22;43379;48.160;14.036;2023-04-25T05:21:02;10.50;99.90
57552;DHT22;43379;48.160;14.036;2023-04-25T05:23:28;10.50;99.90
57552;DHT22;43379;48.160;14.036;2023-04-25T05:25:55;10.50;99.90
57552;DHT22;43379;48.160;14.036;2023-04-25T05:28:21;10.50;99.90
57552;DHT22;43379;48.160;14.036;2023-04-25T05:30:47;10.50;99.90
57552;DHT22;43379;48.160;14.036;2023-04-25T05:33:12;10.50;99.90
57552;DHT22;43379;48.160;14.036;2023-04-25T05:35:38;10.60;99.90
57552;DHT22;43379;48.160;14.036;2023-04-25T05:38:04;10.70;99.90
57552;DHT22;43379;48.160;14.036;2023-04-25T05:40:29;11.10;99.90
57552;DHT22;43379;48.160;14.036;2023-04-25T05:42:55;11.80;99.90
57552;DHT22;43379;48.160;14.036;2023-04-25T05:45:21;11.90;99.90
57552;DHT22;43379;48.160;14.036;2023-04-25T05:47:46;12.00;99.90
57552;DHT22;43379;48.160;14.036;2023-04-25T05:50:12;12.10;99.90
57552;DHT22;43379;48.160;14.036;2023-04-25T05:52:37;12.80;99.90
57552;DHT22;43379;48.160;14.036;2023-04-25T05:55:04;13.70;99.90
57552;DHT22;43379;48.160;14.036;2023-04-25T05:57:30;14.90;99.90
57552;DHT22;43379;48.160;14.036;2023-04-25T05:59:56;15.90;99.90
57552;DHT22;43379;48.160;14.036;2023-04-25T06:02:22;16.60;99.90
57552;DHT22;43379;48.160;14.036;2023-04-25T06:04:51;17.70;99.90
57552;DHT22;43379;48.160;14.036;2023-04-25T06:07:17;18.10;97.30
57552;DHT22;43379;48.160;14.036;2023-04-25T06:09:43;17.90;96.30
57552;DHT22;43379;48.160;14.036;2023-04-25T06:12:09;17.30;96.60
57552;DHT22;43379;48.160;14.036;2023-04-25T06:14:35;16.80;96.70
57552;DHT22;43379;48.160;14.036;2023-04-25T06:17:01;16.30;97.50
57552;DHT22;43379;48.160;14.036;2023-04-25T06:19:32;16.40;98.00
57552;DHT22;43379;48.160;14.036;2023-04-25T06:21:58;16.60;97.80
57552;DHT22;43379;48.160;14.036;2023-04-25T06:24:24;16.60;98.30
57552;DHT22;43379;48.160;14.036;2023-04-25T06:26:49;17.40;98.40
57552;DHT22;43379;48.160;14.036;2023-04-25T06:29:15;18.20;97.00
57552;DHT22;43379;48.160;14.036;2023-04-25T06:31:41;19.10;95.90
57552;DHT22;43379;48.160;14.036;2023-04-25T06:34:06;19.90;95.40
57552;DHT22;43379;48.160;14.036;2023-04-25T06:36:32;20.40;93.70
57552;DHT22;43379;48.160;14.036;2023-04-25T06:38:58;20.50;92.50
57552;DHT22;43379;48.160;14.036;2023-04-25T06:41:23;20.80;91.80
57552;DHT22;43379;48.160;14.036;2023-04-25T06:43:49;20.60;91.60
57552;DHT22;43379;48.160;14.036;2023-04-25T06:46:14;20.00;91.80
57552;DHT22;43379;48.160;14.036;2023-04-25T06:48:40;19.30;90.10
57552;DHT22;43379;48.160;14.036;2023-04-25T06:51:06;18.60;89.80
57552;DHT22;43379;48.160;14.036;2023-04-25T06:53:31;17.90;90.40
57552;DHT22;43379;48.160;14.036;2023-04-25T06:55:57;17.20;90.80
57552;DHT22;43379;48.160;14.036;2023-04-25T06:58:23;16.70;91.50
57552;DHT22;43379;48.160;14.036;2023-04-25T07:00:48;16.40;91.90
57552;DHT22;43379;48.160;14.036;2023-04-25T07:03:14;16.00;92.60
57552;DHT22;43379;48.160;14.036;2023-04-25T07:05:40;15.80;93.10
57552;DHT22;43379;48.160;14.036;2023-04-25T07:08:06;15.40;93.80
57552;DHT22;43379;48.160;14.036;2023-04-25T07:10:31;15.20;93.90
57552;DHT22;43379;48.160;14.036;2023-04-25T07:12:57;14.90;94.80
57552;DHT22;43379;48.160;14.036;2023-04-25T07:15:22;14.90;95.50
57552;DHT22;43379;48.160;14.036;2023-04-25T07:17:48;14.70;95.80
57552;DHT22;43379;48.160;14.036;2023-04-25T07:20:14;14.60;96.10
57552;DHT22;43379;48.160;14.036;2023-04-25T07:22:39;14.40;96.70
57552;DHT22;43379;48.160;14.036;2023-04-25T07:25:05;14.30;96.70
57552;DHT22;43379;48.160;14.036;2023-04-25T07:27:31;14.10;96.90
57552;DHT22;43379;48.160;14.036;2023-04-25T07:29:57;13.90;97.10
57552;DHT22;43379;48.160;14.036;2023-04-25T07:32:23;13.80;97.40
57552;DHT22;43379;48.160;14.036;2023-04-25T07:34:49;13.70;97.70
57552;DHT22;43379;48.160;14.036;2023-04-25T07:37:14;13.50;98.50
57552;DHT22;43379;48.160;14.036;2023-04-25T07:39:40;13.50;99.30
57552;DHT22;43379;48.160;14.036;2023-04-25T07:42:07;13.40;99.90
57552;DHT22;43379;48.160;14.036;2023-04-25T07:44:35;13.40;99.70
57552;DHT22;43379;48.160;14.036;2023-04-25T07:47:05;13.40;99.90
57552;DHT22;43379;48.160;14.036;2023-04-25T07:49:33;13.50;99.90
57552;DHT22;43379;48.160;14.036;2023-04-25T07:51:59;13.60;99.90
57552;DHT22;43379;48.160;14.036;2023-04-25T07:54:25;13.70;99.90
57552;DHT22;43379;48.160;14.036;2023-04-25T07:56:51;13.80;98.50
57552;DHT22;43379;48.160;14.036;2023-04-25T07:59:17;13.80;98.30
57552;DHT22;43379;48.160;14.036;2023-04-25T08:01:42;14.20;98.50
57552;DHT22;43379;48.160;14.036;2023-04-25T08:04:08;14.60;99.20
57552;DHT22;43379;48.160;14.036;2023-04-25T08:06:34;15.00;98.30
57552;DHT22;43379;48.160;14.036;2023-04-25T08:09:00;15.40;98.70
57552;DHT22;43379;48.160;14.036;2023-04-25T08:11:25;15.70;97.70
57552;DHT22;43379;48.160;14.036;2023-04-25T08:13:51;15.80;96.70
57552;DHT22;43379;48.160;14.036;2023-04-25T08:16:17;16.40;97.60
57552;DHT22;43379;48.160;14.036;2023-04-25T08:18:42;17.10;97.00
57552;DHT22;43379;48.160;14.036;2023-04-25T08:21:08;17.60;95.90
57552;DHT22;43379;48.160;14.036;2023-04-25T08:23:36;17.50;93.90
57552;DHT22;43379;48.160;14.036;2023-04-25T08:26:02;17.40;92.50
57552;DHT22;43379;48.160;14.036;2023-04-25T08:28:28;17.20;92.60
57552;DHT22;43379;48.160;14.036;2023-04-25T08:30:54;17.30;93.40
57552;DHT22;43379;48.160;14.036;2023-04-25T08:33:20;17.70;93.70
57552;DHT22;43379;48.160;14.036;2023-04-25T08:35:45;18.20;92.80
57552;DHT22;43379;48.160;14.036;2023-04-25T08:38:11;18.70;93.90
57552;DHT22;43379;48.160;14.036;2023-04-25T08:40:38;18.60;91.60
57552;DHT22;43379;48.160;14.036;2023-04-25T08:43:06;18.30;91.20
57552;DHT22;43379;48.160;14.036;2023-04-25T08:45:39;18.00;91.40
57552;DHT22;43379;48.160;14.036;2023-04-25T08:48:10;17.50;90.80
57552;DHT22;43379;48.160;14.036;2023-04-25T08:50:55;17.40;90.70
57552;DHT22;43379;48.160;14.036;2023-04-25T08:53:32;18.00;91.70
57552;DHT22;43379;48.160;14.036;2023-04-25T08:56:00;18.40;91.70
57552;DHT22;43379;48.160;14.036;2023-04-25T08:58:28;18.80;91.50
57552;DHT22;43379;48.160;14.036;2023-04-25T09:00:54;18.60;90.00
57552;DHT22;43379;48.160;14.036;2023-04-25T09:03:19;18.20;89.60
57552;DHT22;43379;48.160;14.036;2023-04-25T09:05:45;17.90;90.00
57552;DHT22;43379;48.160;14.036;2023-04-25T09:08:11;17.60;89.50
57552;DHT22;43379;48.160;14.036;2023-04-25T09:10:37;17.30;89.80
57552;DHT22;43379;48.160;14.036;2023-04-25T09:13:08;17.00;90.80
57552;DHT22;43379;48.160;14.036;2023-04-25T09:15:52;16.90;91.70
57552;DHT22;43379;48.160;14.036;2023-04-25T09:18:28;16.90;91.90
57552;DHT22;43379;48.160;14.036;2023-04-25T09:20:56;17.00;91.60
57552;DHT22;43379;48.160;14.036;2023-04-25T09:23:22;17.20;91.10
57552;DHT22;43379;48.160;14.036;2023-04-25T09:25:50;17.70;91.70
57552;DHT22;43379;48.160;14.036;2023-04-25T09:28:23;18.10;91.50
57552;DHT22;43379;48.160;14.036;2023-04-25T09:30:55;18.80;91.50
57552;DHT22;43379;48.160;14.036;2023-04-25T09:33:33;19.10;88.40
57552;DHT22;43379;48.160;14.036;2023-04-25T09:36:08;19.40;90.90
57552;DHT22;43379;48.160;14.036;2023-04-25T09:38:42;19.80;89.30
57552;DHT22;43379;48.160;14.036;2023-04-25T09:41:09;19.60;86.10
57552;DHT22;43379;48.160;14.036;2023-04-25T09:43:35;19.50;84.40
57552;DHT22;43379;48.160;14.036;2023-04-25T09:46:01;19.30;86.30
57552;DHT22;43379;48.160;14.036;2023-04-25T09:48:28;19.10;86.10
57552;DHT22;43379;48.160;14.036;2023-04-25T09:51:07;18.90;85.80
57552;DHT22;43379;48.160;14.036;2023-04-25T09:53:34;18.50;85.80
57552;DHT22;43379;48.160;14.036;2023-04-25T09:56:04;18.40;86.70
57552;DHT22;43379;48.160;14.036;2023-04-25T09:58:30;18.80;89.40
57552;DHT22;43379;48.160;14.036;2023-04-25T10:01:00;18.80;87.90
57552;DHT22;43379;48.160;14.036;2023-04-25T10:03:30;18.90;85.50
57552;DHT22;43379;48.160;14.036;2023-04-25T10:05:58;18.50;83.90
57552;DHT22;43379;48.160;14.036;2023-04-25T10:08:25;18.50;83.50
57552;DHT22;43379;48.160;14.036;2023-04-25T10:10:52;18.20;84.40
57552;DHT22;43379;48.160;14.036;2023-04-25T10:13:18;17.80;82.10
57552;DHT22;43379;48.160;14.036;2023-04-25T10:15:45;17.50;83.80
57552;DHT22;43379;48.160;14.036;2023-04-25T10:18:12;17.10;85.30
57552;DHT22;43379;48.160;14.036;2023-04-25T10:20:38;16.50;87.30
57552;DHT22;43379;48.160;14.036;2023-04-25T10:23:14;16.10;90.00
57552;DHT22;43379;48.160;14.036;2023-04-25T10:25:42;15.70;91.00
57552;DHT22;43379;48.160;14.036;2023-04-25T10:28:08;15.30;91.60
57552;DHT22;43379;48.160;14.036;2023-04-25T10:30:34;15.10;92.40
57552;DHT22;43379;48.160;14.036;2023-04-25T10:33:00;14.90;92.90
57552;DHT22;43379;48.160;14.036;2023-04-25T10:35:29;14.70;94.10
57552;DHT22;43379;48.160;14.036;2023-04-25T10:38:03;15.00;95.50
57552;DHT22;43379;48.160;14.036;2023-04-25T10:40:30;15.00;94.40
57552;DHT22;43379;48.160;14.036;2023-04-25T10:42:55;15.10;93.60
57552;DHT22;43379;48.160;14.036;2023-04-25T10:45:53;15.00;93.70
57552;DHT22;43379;48.160;14.036;2023-04-25T10:48:31;15.00;93.60
57552;DHT22;43379;48.160;14.036;2023-04-25T10:51:10;15.20;94.60
57552;DHT22;43379;48.160;14.036;2023-04-25T10:53:36;15.20;93.70
57552;DHT22;43379;48.160;14.036;2023-04-25T10:56:17;15.10;94.30
57552;DHT22;43379;48.160;14.036;2023-04-25T10:58:44;14.90;93.50
57552;DHT22;43379;48.160;14.036;2023-04-25T11:01:13;14.80;93.80
57552;DHT22;43379;48.160;14.036;2023-04-25T11:03:42;14.40;94.50
57552;DHT22;43379;48.160;14.036;2023-04-25T11:08:50;13.80;95.80
57552;DHT22;43379;48.160;14.036;2023-04-25T11:11:19;13.70;96.70
57552;DHT22;43379;48.160;14.036;2023-04-25T11:13:49;13.40;97.00
57552;DHT22;43379;48.160;14.036;2023-04-25T11:16:16;13.40;97.20
57552;DHT22;43379;48.160;14.036;2023-04-25T11:18:42;13.50;97.50
57552;DHT22;43379;48.160;14.036;2023-04-25T11:21:09;13.60;98.10
57552;DHT22;43379;48.160;14.036;2023-04-25T11:23:35;13.60;98.90
57552;DHT22;43379;48.160;14.036;2023-04-25T11:26:02;13.60;97.60
57552;DHT22;43379;48.160;14.036;2023-04-25T11:28:28;13.70;98.40
57552;DHT22;43379;48.160;14.036;2023-04-25T11:30:54;13.90;99.30
57552;DHT22;43379;48.160;14.036;2023-04-25T11:33:25;14.10;99.90
57552;DHT22;43379;48.160;14.036;2023-04-25T11:35:54;14.20;99.90
57552;DHT22;43379;48.160;14.036;2023-04-25T11:38:21;14.50;99.20
57552;DHT22;43379;48.160;14.036;2023-04-25T11:40:53;14.60;99.30
57552;DHT22;43379;48.160;14.036;2023-04-25T11:43:22;14.80;99.90
57552;DHT22;43379;48.160;14.036;2023-04-25T11:45:51;15.10;99.50
57552;DHT22;43379;48.160;14.036;2023-04-25T11:48:18;15.20;99.40
57552;DHT22;43379;48.160;14.036;2023-04-25T11:50:44;15.30;99.60
57552;DHT22;43379;48.160;14.036;2023-04-25T11:53:10;15.30;98.60
57552;DHT22;43379;48.160;14.036;2023-04-25T11:55:37;15.30;98.70
57552;DHT22;43379;48.160;14.036;2023-04-25T11:58:03;15.30;98.20
57552;DHT22;43379;48.160;14.036;2023-04-25T12:00:29;15.40;98.20
57552;DHT22;43379;48.160;14.036;2023-04-25T12:02:56;15.30;97.60
57552;DHT22;43379;48.160;14.036;2023-04-25T12:05:28;15.40;97.10
57552;DHT22;43379;48.160;14.036;2023-04-25T12:07:54;15.40;97.40
57552;DHT22;43379;48.160;14.036;2023-04-25T12:10:20;15.60;99.80
57552;DHT22;43379;48.160;14.036;2023-04-25T12:12:47;15.70;99.80
57552;DHT22;43379;48.160;14.036;2023-04-25T12:15:22;15.80;98.70
57552;DHT22;43379;48.160;14.036;2023-04-25T12:17:50;15.90;98.70
57552;DHT22;43379;48.160;14.036;2023-04-25T12:20:35;15.90;98.70
57552;DHT22;43379;48.160;14.036;2023-04-25T12:23:05;16.00;98.70
57552;DHT22;43379;48.160;14.036;2023-04-25T12:25:41;16.10;98.50
57552;DHT22;43379;48.160;14.036;2023-04-25T12:28:18;16.00;97.90
57552;DHT22;43379;48.160;14.036;2023-04-25T12:30:57;16.00;96.60
57552;DHT22;43379;48.160;14.036;2023-04-25T12:33:23;15.90;94.20
57552;DHT22;43379;48.160;14.036;2023-04-25T12:35:49;15.70;93.90
57552;DHT22;43379;48.160;14.036;2023-04-25T12:38:31;15.40;94.00
57552;DHT22;43379;48.160;14.036;2023-04-25T12:40:57;15.20;94.40
57552;DHT22;43379;48.160;14.036;2023-04-25T12:43:23;14.50;94.00
57552;DHT22;43379;48.160;14.036;2023-04-25T12:45:50;14.30;94.40
57552;DHT22;43379;48.160;14.036;2023-04-25T12:48:16;14.10;95.20
57552;DHT22;43379;48.160;14.036;2023-04-25T12:50:42;13.90;95.00
57552;DHT22;43379;48.160;14.036;2023-04-25T12:53:08;13.90;95.90
57552;DHT22;43379;48.160;14.036;2023-04-25T12:55:34;13.80;96.20
57552;DHT22;43379;48.160;14.036;2023-04-25T12:58:00;13.90;96.00
57552;DHT22;43379;48.160;14.036;2023-04-25T13:00:26;13.80;96.50
57552;DHT22;43379;48.160;14.036;2023-04-25T13:02:52;13.80;96.40
57552;DHT22;43379;48.160;14.036;2023-04-25T13:05:17;13.80;97.20
57552;DHT22;43379;48.160;14.036;2023-04-25T13:07:43;13.70;97.80
57552;DHT22;43379;48.160;14.036;2023-04-25T13:10:10;13.70;98.40
57552;DHT22;43379;48.160;14.036;2023-04-25T13:12:36;13.60;99.00
57552;DHT22;43379;48.160;14.036;2023-04-25T13:15:01;13.60;99.10
57552;DHT22;43379;48.160;14.036;2023-04-25T13:17:27;13.50;99.20
57552;DHT22;43379;48.160;14.036;2023-04-25T13:19:52;13.40;99.20
57552;DHT22;43379;48.160;14.036;2023-04-25T13:22:18;13.40;99.70
57552;DHT22;43379;48.160;14.036;2023-04-25T13:24:45;13.40;99.70
57552;DHT22;43379;48.160;14.036;2023-04-25T13:27:11;13.20;99.50
57552;DHT22;43379;48.160;14.036;2023-04-25T13:29:37;13.10;99.60
57552;DHT22;43379;48.160;14.036;2023-04-25T13:32:04;13.10;99.90
57552;DHT22;43379;48.160;14.036;2023-04-25T13:34:30;12.80;99.90
57552;DHT22;43379;48.160;14.036;2023-04-25T13:36:56;12.80;99.90
57552;DHT22;43379;48.160;14.036;2023-04-25T13:39:22;12.80;99.90
57552;DHT22;43379;48.160;14.036;2023-04-25T13:41:47;12.70;99.90
57552;DHT22;43379;48.160;14.036;2023-04-25T13:44:13;12.70;99.90
57552;DHT22;43379;48.160;14.036;2023-04-25T13:46:39;12.70;99.90
57552;DHT22;43379;48.160;14.036;2023-04-25T13:49:05;12.90;99.90
57552;DHT22;43379;48.160;14.036;2023-04-25T13:51:31;12.90;99.90
57552;DHT22;43379;48.160;14.036;2023-04-25T13:53:57;13.10;99.90
57552;DHT22;43379;48.160;14.036;2023-04-25T13:56:23;13.20;99.90
57552;DHT22;43379;48.160;14.036;2023-04-25T13:58:51;13.30;99.90
57552;DHT22;43379;48.160;14.036;2023-04-25T14:01:18;13.40;99.90
57552;DHT22;43379;48.160;14.036;2023-04-25T14:03:44;13.50;99.90
57552;DHT22;43379;48.160;14.036;2023-04-25T14:06:10;13.70;99.90
57552;DHT22;43379;48.160;14.036;2023-04-25T14:08:38;13.80;99.90
57552;DHT22;43379;48.160;14.036;2023-04-25T14:11:03;13.80;99.90
57552;DHT22;43379;48.160;14.036;2023-04-25T14:13:29;13.90;99.90
57552;DHT22;43379;48.160;14.036;2023-04-25T14:15:55;14.00;99.90
57552;DHT22;43379;48.160;14.036;2023-04-25T14:18:21;14.10;99.90
57552;DHT22;43379;48.160;14.036;2023-04-25T14:20:47;14.30;99.90
57552;DHT22;43379;48.160;14.036;2023-04-25T14:23:13;14.50;99.90
57552;DHT22;43379;48.160;14.036;2023-04-25T14:25:39;14.50;99.90
57552;DHT22;43379;48.160;14.036;2023-04-25T14:28:05;14.60;99.90
57552;DHT22;43379;48.160;14.036;2023-04-25T14:30:31;14.60;99.90
57552;DHT22;43379;48.160;14.036;2023-04-25T14:32:57;14.60;99.90
57552;DHT22;43379;48.160;14.036;2023-04-25T14:35:23;14.70;99.90
57552;DHT22;43379;48.160;14.036;2023-04-25T14:37:48;14.70;99.90
57552;DHT22;43379;48.160;14.036;2023-04-25T14:40:14;14.80;99.90
57552;DHT22;43379;48.160;14.036;2023-04-25T14:42:41;14.80;99.90
57552;DHT22;43379;48.160;14.036;2023-04-25T14:45:07;14.80;99.40
57552;DHT22;43379;48.160;14.036;2023-04-25T14:47:35;14.80;99.80
57552;DHT22;43379;48.160;14.036;2023-04-25T14:50:01;14.90;99.70
57552;DHT22;43379;48.160;14.036;2023-04-25T14:52:27;14.90;99.70
57552;DHT22;43379;48.160;14.036;2023-04-25T14:54:53;14.90;99.50
57552;DHT22;43379;48.160;14.036;2023-04-25T14:57:19;14.90;99.30
57552;DHT22;43379;48.160;14.036;2023-04-25T14:59:44;14.90;99.50
57552;DHT22;43379;48.160;14.036;2023-04-25T15:02:11;14.80;99.30
57552;DHT22;43379;48.160;14.036;2023-04-25T15:04:36;14.70;98.90
57552;DHT22;43379;48.160;14.036;2023-04-25T15:07:02;14.60;99.10
57552;DHT22;43379;48.160;14.036;2023-04-25T15:09:28;14.60;98.40
57552;DHT22;43379;48.160;14.036;2023-04-25T15:11:54;14.50;98.20
57552;DHT22;43379;48.160;14.036;2023-04-25T15:14:20;14.50;98.20
57552;DHT22;43379;48.160;14.036;2023-04-25T15:16:45;14.30;97.70
57552;DHT22;43379;48.160;14.036;2023-04-25T15:19:11;14.30;98.10